レイキャビク/ケフラヴィーク の空港の天気 - METARとTAF

ケフラヴィーク国際空港 ( BIKF / KEF ) - アイスランド ケプラヴィーク
飛行場実況気象(Metar)
観測時間02/28 00:30 GMT (02/28 00:30 UTC)
風向・風速東 1m/s
視程10km以上
天気現象
なし
気温0℃
湿度74%
気圧1005hPa
METARBIKF 280030Z 08002KT CAVOK M00/M04 Q1005
過去の天気等 Google飛行場航空写真 Wunderground天気予報

過去48時間のMETAR

飛行場予報(TAF)
発表時間: 2/27 22:59 GMT (2/27 22:59 UTC)
予報対象時間: 28日0時 GMT ~ 1日0時 GMT
風向・風速北東 5m/s
視程10km以上
なし
TAF BIKF 272259Z 2800/2824 05010KT CAVOK TX02/2815Z TNM07/2806Z